ASN logo
Last updated: 1 December 2020
Statuts:
Date:dimanche 9 juin 2019
Heure:15:55
Type/Sous-type:Silhouette image of generic B739 model; specific model in this crash may look slightly different
Boeing 737-924ER (WL)
Compagnie:United Airlines
Immatriculation: N75436
Numéro de série: 33531/2947
Année de Fabrication: 2009-06-15 (10 years)
Moteurs: 2 CFMI CFM56-7B26
Equipage:victimes: 0 / à bord:
Passagers:victimes: 0 / à bord:
Total:victimes: 0 / à bord: 184
Dégats de l'appareil: Substantiels
Conséquences: Repaired
Lieu de l'accident:Denver International Airport, CO (DEN) (   Etats-Unis d'Amérique)
Phase de vol: A l'atterrissage (LDG)
Nature:Transport de Passagers Nat.
Aéroport de départ:Reno-Cannon International Airport, NV (RNO/KRNO), Etats-Unis d'Amérique
Aéroport de destination:Denver International Airport, CO (DEN/KDEN), Etats-Unis d'Amérique
Numéro de vol:UA401
Détails:
United Airlines flight 401 suffered a tail strike on landing on runway 16R at Denver International Airport, Colorado, USA.

Accident investigation:
Investigating agency: NTSB
Status: Investigation ongoing
Accident number: DCA19CA169

Sources:
» NTSB

METAR Weather report:
20:53 UTC / 14:53 local time:
KDEN 092053Z VRB03KT 10SM FEW050 FEW200 14/02 A3047 RMK AO2 SLP285 T01440022 58005

21:53 UTC / 15:53 local time:
KDEN 092153Z VRB03KT 10SM FEW050 FEW140 16/02 A3046 RMK AO2 SLP279 T01610022

22:53 UTC / 16:53 local time:
KDEN 092253Z 00000KT 10SM FEW055 FEW140 15/01 A3045 RMK AO2 SLP279 T01500011


Photos

Add your photo of this accident or aircraft

Plan
This map shows the airport of departure and the intended destination of the flight. The line is connecting ADS-B datapoints from Flightradar24.
La distance entre Reno-Cannon International Airport, NV et Denver International Airport, CO est de 1282 km (801 miles).
Accident location: Exact; deduced from official accident report.

Les informations ci-dessus ne représentent pas l'opinion de la 'Flight Safety Foundation' ou de 'Aviation Safety Network' sur les causes de l'accident. Ces informations prélimimaires sont basées sur les faits tel qu'ils sont connus à ce jour.
languages: languages

Share